PST,Max TemperatureF,Mean TemperatureF,Min TemperatureF,Max Dew PointF,MeanDew PointF,Min DewpointF,Max Humidity, Mean Humidity, Min Humidity, Max Sea Level PressureIn, Mean Sea Level PressureIn, Min Sea Level PressureIn, Max VisibilityMiles, Mean VisibilityMiles, Min VisibilityMiles, Max Wind SpeedMPH, Mean Wind SpeedMPH, Max Gust SpeedMPH,PrecipitationIn, CloudCover, Events, WindDirDegrees
2013-1-1,46,44,42,43,41,39,88,83,73,30.36,30.15,29.96,,,,43,27,,0.00,,,163
2013-1-2,47,44,40,45,43,39,96,92,84,29.99,29.90,29.83,,,,30,23,,0.00,,,170
2013-1-3,47,44,40,44,41,38,97,91,80,29.99,29.84,29.76,,,,32,13,,0.00,,,215
2013-1-4,46,43,40,44,40,36,95,85,68,30.05,29.96,29.80,,,,39,17,,0.00,,,172
2013-1-5,45,42,38,42,39,37,96,86,71,29.79,29.68,29.55,,,,48,32,,0.00,,,173
2013-1-6,46,42,39,45,40,37,97,92,86,29.83,29.71,29.49,,,,30,8,,0.00,,,197
2013-1-7,47,43,39,43,36,31,95,74,57,29.93,29.71,29.48,,,,28,13,,0.00,,,275
2013-1-8,42,39,36,38,36,34,96,89,75,29.93,29.72,29.51,,,,15,8,,0.00,,,288
2013-1-9,40,38,37,36,30,26,92,71,51,30.16,29.84,29.56,,,,16,11,,0.00,,,307
2013-1-10,41,40,38,35,32,25,88,74,56,30.30,30.25,30.18,,,,12,9,,0.00,,,295
2013-1-11,42,39,36,40,36,32,96,88,79,30.31,30.26,30.21,,,,10,7,,0.00,,,225
2013-1-12,45,42,40,42,40,39,95,91,87,30.42,30.35,30.25,,,,12,5,,0.00,,,226
2013-1-13,43,41,39,43,41,39,97,95,92,30.44,30.42,30.40,,,,7,4,,0.00,,,254
2013-1-14,49,44,40,45,42,38,97,86,73,30.54,30.50,30.45,,,,14,5,,0.00,,,269
2013-1-15,47,43,39,43,39,36,93,86,75,30.55,30.50,30.45,,,,13,4,,0.00,,,263
2013-1-16,51,46,42,44,42,40,94,84,63,30.50,30.39,30.21,,,,23,5,,0.00,,,208
2013-1-17,47,46,45,43,42,40,90,84,75,30.20,30.05,29.97,,,,33,21,,0.00,,,185
2013-1-18,44,42,41,42,40,36,98,89,74,30.27,30.21,30.08,,,,13,6,,0.00,,,65
2013-1-19,46,44,41,44,42,39,98,90,75,30.26,30.24,30.21,,,,21,11,,0.00,,,169
2013-1-20,45,44,44,41,40,39,88,84,77,30.29,30.27,30.24,,,,18,13,,0.00,,,171
2013-1-21,45,44,42,42,40,39,93,86,75,30.25,30.04,29.82,,,,31,17,,0.00,,,165
2013-1-22,46,46,45,45,43,40,97,92,82,29.83,29.71,29.65,,,,33,27,,0.00,,,160
2013-1-23,45,44,42,44,39,36,95,83,71,29.84,29.75,29.69,,,,17,10,,0.00,,,183
2013-1-24,45,42,40,42,39,37,97,86,71,29.85,29.57,29.24,,,,59,28,,0.00,,,170
2013-1-25,46,44,41,42,40,36,91,84,73,29.70,29.58,29.51,,,,25,15,,0.00,,,206
2013-1-26,44,41,38,38,36,34,94,83,71,29.87,29.83,29.72,,,,12,7,,0.00,,,265
2013-1-27,41,39,37,37,34,28,93,79,63,30.00,29.92,29.85,,,,13,5,,0.00,,,281
2013-1-28,41,39,37,38,36,34,94,88,79,30.10,29.97,29.90,,,,9,5,,0.00,,,282
2013-1-29,50,44,38,47,41,37,99,87,69,30.22,30.10,30.02,,,,23,9,,0.00,,,256
2013-1-30,47,44,42,46,42,39,97,91,84,30.26,30.14,29.91,,,,26,10,,0.00,,,191
2013-1-31,48,46,43,44,42,40,93,85,73,30.19,30.07,29.91,,,,15,6,,0.00,,,229